createdAt,value
2018-09-15T00:00:07.953Z,34.7
2018-09-15T00:02:10.300Z,34.6
2018-09-15T00:04:05.596Z,34.6
2018-09-15T00:06:05.268Z,34.5
2018-09-15T00:08:08.497Z,34.6
2018-09-15T00:10:05.276Z,34.8
2018-09-15T00:12:06.008Z,34.3
2018-09-15T00:14:05.885Z,34.7
2018-09-15T00:16:13.150Z,34.6
2018-09-15T00:18:10.662Z,34.8
2018-09-15T00:20:07.910Z,34.4
2018-09-15T00:22:05.638Z,34.4
2018-09-15T00:24:05.357Z,34.6
2018-09-15T00:26:05.491Z,34.7
2018-09-15T00:28:10.380Z,34.8
2018-09-15T00:30:05.362Z,34.8
2018-09-15T00:32:07.626Z,34.7
2018-09-15T00:34:05.344Z,34.7
2018-09-15T00:36:05.033Z,34.3
2018-09-15T00:38:05.745Z,34.6
2018-09-15T00:40:10.563Z,34.6
2018-09-15T00:42:05.490Z,34.6
2018-09-15T00:44:05.185Z,34.8
2018-09-15T00:46:11.069Z,34.6
2018-09-15T00:48:05.970Z,34.6
2018-09-15T00:50:05.692Z,34.7
2018-09-15T00:52:05.892Z,34.5
2018-09-15T00:54:05.113Z,34.6
2018-09-15T00:56:05.818Z,34.8
2018-09-15T00:58:05.318Z,34.8
2018-09-15T01:00:07.602Z,34.8
2018-09-15T01:02:05.298Z,34.8
2018-09-15T01:04:05.019Z,34.7
2018-09-15T01:06:18.401Z,34.1
2018-09-15T01:08:10.200Z,34.3
2018-09-15T01:10:05.424Z,34.3
2018-09-15T01:12:05.288Z,34.6
2018-09-15T01:14:11.185Z,33.9
2018-09-15T01:16:07.575Z,34.6
2018-09-15T01:18:05.045Z,34.6
2018-09-15T01:20:08.774Z,34.7
2018-09-15T01:22:05.811Z,34.8
2018-09-15T01:24:05.807Z,34.6
2018-09-15T01:26:05.699Z,34.7
2018-09-15T01:28:08.255Z,34.8
2018-09-15T01:30:06.014Z,34.8
2018-09-15T01:32:05.721Z,34.6
2018-09-15T01:34:06.069Z,35
2018-09-15T01:36:05.882Z,34.9
2018-09-15T01:38:10.701Z,34.6
2018-09-15T01:40:05.408Z,34.6
2018-09-15T01:42:05.124Z,35.1
2018-09-15T01:44:08.445Z,35.1
2018-09-15T01:46:07.764Z,35.3
2018-09-15T01:48:05.442Z,35.3
2018-09-15T01:50:05.681Z,34.6
2018-09-15T01:52:05.353Z,35.1
2018-09-15T01:54:05.090Z,34.6
2018-09-15T01:56:05.751Z,34.4
2018-09-15T01:58:05.507Z,35
2018-09-15T02:00:08.354Z,35.3
2018-09-15T02:02:05.069Z,35.3
2018-09-15T02:04:08.287Z,35
2018-09-15T02:06:06.713Z,35
2018-09-15T02:08:05.447Z,35.3
2018-09-15T02:10:10.371Z,35.6
2018-09-15T02:12:05.078Z,35.6
2018-09-15T02:14:05.826Z,35
2018-09-15T02:16:05.543Z,35.2
2018-09-15T02:18:05.970Z,35.2
2018-09-15T02:20:05.765Z,35.1
2018-09-15T02:22:05.525Z,34.7
2018-09-15T02:24:05.287Z,34.9
2018-09-15T02:26:05.973Z,34.5
2018-09-15T02:28:05.701Z,35.4
2018-09-15T02:30:08.022Z,35.7
2018-09-15T02:32:05.258Z,35.5
2018-09-15T02:34:08.224Z,34.7
2018-09-15T02:36:08.453Z,34.8
2018-09-15T02:38:05.115Z,34.6
2018-09-15T02:40:07.548Z,35.1
2018-09-15T02:42:15.383Z,35
2018-09-15T02:44:08.360Z,35.4
2018-09-15T02:46:07.691Z,35.4
2018-09-15T02:48:05.445Z,35.3
2018-09-15T02:50:12.765Z,35.2
2018-09-15T02:52:05.525Z,35.2
2018-09-15T02:54:05.280Z,35.8
2018-09-15T02:56:13.561Z,35.6
2018-09-15T02:58:05.860Z,35.6
2018-09-15T03:00:05.599Z,35.4
2018-09-15T03:02:05.814Z,35.5
2018-09-15T03:04:05.528Z,35.7
2018-09-15T03:06:05.672Z,35.6
2018-09-15T03:08:05.343Z,35.6
2018-09-15T03:10:05.025Z,35.2
2018-09-15T03:12:05.761Z,35.7
2018-09-15T03:14:05.978Z,35.7
2018-09-15T03:16:05.692Z,35.5
2018-09-15T03:18:05.579Z,35.8
2018-09-15T03:20:08.390Z,35.9
2018-09-15T03:22:08.240Z,36
2018-09-15T03:24:05.965Z,36
2018-09-15T03:26:05.691Z,35.8
2018-09-15T03:28:05.395Z,35.9
2018-09-15T03:30:10.213Z,35.8
2018-09-15T03:32:05.969Z,35.8
2018-09-15T03:34:07.782Z,34.9
2018-09-15T03:36:05.048Z,35
2018-09-15T03:38:05.778Z,35.6
2018-09-15T03:40:07.585Z,35.3
2018-09-15T03:42:05.551Z,35.4
2018-09-15T03:44:05.254Z,35.6
2018-09-15T03:46:05.914Z,36
2018-09-15T03:48:05.596Z,36.1
2018-09-15T03:50:05.281Z,35.7
2018-09-15T03:52:06.028Z,35.7
2018-09-15T03:54:05.807Z,36
2018-09-15T03:56:05.560Z,36
2018-09-15T03:58:05.236Z,36
2018-09-15T04:00:05.957Z,36.1
2018-09-15T04:02:10.688Z,35.9
2018-09-15T04:04:05.432Z,35.9
2018-09-15T04:06:05.168Z,35.6
2018-09-15T04:08:05.883Z,35.7
2018-09-15T04:10:05.568Z,36.1
2018-09-15T04:12:05.317Z,36.3
2018-09-15T04:14:04.999Z,35.9
2018-09-15T04:16:05.781Z,34.5
2018-09-15T04:18:05.675Z,35.2
2018-09-15T04:20:05.390Z,36.3
2018-09-15T04:22:07.606Z,36.1
2018-09-15T04:24:05.309Z,36.1
2018-09-15T04:26:05.988Z,36.5
2018-09-15T04:28:05.205Z,36.5
2018-09-15T04:30:05.940Z,36.3
2018-09-15T04:32:05.627Z,35.8
2018-09-15T04:34:10.434Z,35.6
2018-09-15T04:36:05.224Z,35.6
2018-09-15T04:38:05.939Z,36.2
2018-09-15T04:40:05.656Z,36.5
2018-09-15T04:42:06.076Z,36.8
2018-09-15T04:44:10.972Z,36.1
2018-09-15T04:46:10.631Z,36.1
2018-09-15T04:48:05.136Z,36.4
2018-09-15T04:50:05.004Z,36.6
2018-09-15T04:52:05.671Z,36.5
2018-09-15T04:54:13.001Z,36.1
2018-09-15T04:56:05.788Z,36.1
2018-09-15T04:58:05.482Z,35.9
2018-09-15T05:00:05.728Z,36.1
2018-09-15T05:02:06.000Z,36.1
2018-09-15T05:04:05.775Z,36.3
2018-09-15T05:06:06.012Z,36.6
2018-09-15T05:08:05.740Z,36.3
2018-09-15T05:10:05.428Z,36.3
2018-09-15T05:12:10.802Z,35.9
2018-09-15T05:14:08.119Z,35.7
2018-09-15T05:16:15.966Z,36.4
2018-09-15T05:18:05.894Z,36.2
2018-09-15T05:20:10.660Z,36.2
2018-09-15T05:22:05.860Z,36.2
2018-09-15T05:24:08.083Z,36.3
2018-09-15T05:26:05.964Z,36.1
2018-09-15T05:28:05.644Z,36.3
2018-09-15T05:30:05.361Z,36.6
2018-09-15T05:32:05.013Z,36.6
2018-09-15T05:34:05.749Z,36.8
2018-09-15T05:36:05.654Z,36.2
2018-09-15T05:38:05.304Z,36.7
2018-09-15T05:40:05.518Z,37
2018-09-15T05:42:05.232Z,36.9
2018-09-15T05:44:05.952Z,37
2018-09-15T05:46:05.663Z,37
2018-09-15T05:48:05.451Z,36.9
2018-09-15T05:50:05.157Z,36.8
2018-09-15T05:52:08.373Z,36.8
2018-09-15T05:54:05.077Z,36.6
2018-09-15T05:56:08.494Z,36.3
2018-09-15T05:58:05.944Z,36.3
2018-09-15T06:00:10.668Z,36.6
2018-09-15T06:02:05.413Z,36.6
2018-09-15T06:04:10.186Z,36.6
2018-09-15T06:06:05.949Z,36.6
2018-09-15T06:08:05.166Z,36.1
2018-09-15T06:10:05.871Z,36.1
2018-09-15T06:12:08.140Z,36.6
2018-09-15T06:14:08.468Z,36.9
2018-09-15T06:16:05.194Z,36.9
2018-09-15T06:18:05.108Z,37.1
2018-09-15T06:20:08.333Z,36.8
2018-09-15T06:22:05.051Z,36.9
2018-09-15T06:24:08.272Z,37
2018-09-15T06:26:08.469Z,37.2
2018-09-15T06:28:05.167Z,37.2
2018-09-15T06:30:11.023Z,37.5
2018-09-15T06:32:05.715Z,37.5
2018-09-15T06:34:07.989Z,36.8
2018-09-15T06:36:07.975Z,36.4
2018-09-15T06:38:05.757Z,36.6
2018-09-15T06:40:06.575Z,37.2
2018-09-15T06:42:07.856Z,37.4
2018-09-15T06:44:05.807Z,37.4
2018-09-15T06:46:05.565Z,37.5
2018-09-15T06:48:23.538Z,37.7
2018-09-15T06:50:05.679Z,37.6
2018-09-15T06:52:05.379Z,37.7
2018-09-15T06:54:05.040Z,37.6
2018-09-15T06:56:08.265Z,37.3
2018-09-15T06:58:07.998Z,37.4
2018-09-15T07:00:05.730Z,37.3
2018-09-15T07:02:10.677Z,37.8
2018-09-15T07:04:05.892Z,37.8
2018-09-15T07:06:05.677Z,38
2018-09-15T07:08:05.945Z,37.1
2018-09-15T07:10:05.630Z,37.5
2018-09-15T07:12:07.871Z,37.7
2018-09-15T07:14:05.590Z,37.7
2018-09-15T07:16:05.357Z,38
2018-09-15T07:18:10.324Z,37.9
2018-09-15T07:20:05.273Z,37.9
2018-09-15T07:22:05.117Z,38.3
2018-09-15T07:24:05.814Z,38.3
2018-09-15T07:26:05.712Z,38
2018-09-15T07:28:05.596Z,37.7
2018-09-15T07:30:05.339Z,38.2
2018-09-15T07:32:05.301Z,38.4
2018-09-15T07:34:08.097Z,38.5
2018-09-15T07:36:05.771Z,38.5
2018-09-15T07:38:05.464Z,38.1
2018-09-15T07:40:05.264Z,38.5
2018-09-15T07:42:05.061Z,37.9
2018-09-15T07:44:05.857Z,38.5
2018-09-15T07:46:05.609Z,38.5
2018-09-15T07:48:05.328Z,38.8
2018-09-15T07:50:07.638Z,38.5
2018-09-15T07:52:05.316Z,38.5
2018-09-15T07:54:11.074Z,38.6
2018-09-15T07:56:09.479Z,38.6
2018-09-15T07:58:05.243Z,38.8
2018-09-15T08:00:13.592Z,39
2018-09-15T08:02:05.528Z,39
2018-09-15T08:04:05.473Z,38.6
2018-09-15T08:06:05.741Z,38.8
2018-09-15T08:08:10.988Z,38.8
2018-09-15T08:10:05.679Z,38.8
2018-09-15T08:12:05.419Z,38.5
2018-09-15T08:14:05.129Z,38.9
2018-09-15T08:16:08.369Z,38.9
2018-09-15T08:18:05.384Z,38.9
2018-09-15T08:20:05.079Z,39.2
2018-09-15T08:22:05.772Z,39.1
2018-09-15T08:24:06.386Z,39.2
2018-09-15T08:26:05.216Z,39.4
2018-09-15T08:28:05.415Z,39.3
2018-09-15T08:30:05.116Z,39.3
2018-09-15T08:32:05.196Z,39.5
2018-09-15T08:34:06.025Z,39.6
2018-09-15T08:36:13.311Z,40.1
2018-09-15T08:38:06.107Z,39.8
2018-09-15T08:40:05.862Z,39.8
2018-09-15T08:42:05.089Z,39.5
2018-09-15T08:44:08.334Z,39.8
2018-09-15T08:46:05.990Z,39.8
2018-09-15T08:48:05.826Z,39.8
2018-09-15T08:50:10.677Z,39.6
2018-09-15T08:52:05.860Z,39.6
2018-09-15T08:54:13.182Z,39.6
2018-09-15T08:56:08.012Z,39.7
2018-09-15T08:58:05.072Z,39.8
2018-09-15T09:00:10.902Z,39.1
2018-09-15T09:02:05.598Z,39.1
2018-09-15T09:04:05.311Z,39.2
2018-09-15T09:06:06.010Z,39.4
2018-09-15T09:08:05.681Z,39.5
2018-09-15T09:10:05.404Z,39.5
2018-09-15T09:12:05.239Z,39.1
2018-09-15T09:14:06.015Z,39.3
2018-09-15T09:16:05.823Z,39.3
2018-09-15T09:18:05.827Z,39
2018-09-15T09:20:05.798Z,39.3
2018-09-15T09:22:05.567Z,39
2018-09-15T09:24:05.307Z,39.1
2018-09-15T09:26:06.054Z,39.2
2018-09-15T09:28:11.041Z,39
2018-09-15T09:30:08.349Z,39.3
2018-09-15T09:32:05.032Z,39.3
2018-09-15T09:34:05.991Z,39.2
2018-09-15T09:36:08.345Z,39
2018-09-15T09:38:07.808Z,39
2018-09-15T09:40:05.554Z,39
2018-09-15T09:42:05.291Z,39.2
2018-09-15T09:44:05.598Z,39
2018-09-15T09:46:07.829Z,38.9
2018-09-15T09:48:05.202Z,38.9
2018-09-15T09:50:05.082Z,38.9
2018-09-15T09:52:10.841Z,39.1
2018-09-15T09:54:10.808Z,39.1
2018-09-15T09:56:05.494Z,39.1
2018-09-15T09:58:05.185Z,38.9
2018-09-15T10:00:05.799Z,38.9
2018-09-15T10:02:05.524Z,39.2
2018-09-15T10:04:10.252Z,38.7
2018-09-15T10:06:05.142Z,38.9
2018-09-15T10:08:06.071Z,39
2018-09-15T10:10:08.519Z,39.2
2018-09-15T10:12:05.320Z,39.2
2018-09-15T10:14:05.060Z,39.3
2018-09-15T10:16:05.894Z,39.3
2018-09-15T10:18:05.990Z,39.1
2018-09-15T10:20:05.956Z,39.2
2018-09-15T10:22:06.029Z,39.4
2018-09-15T10:24:09.308Z,39.3
2018-09-15T10:26:05.572Z,39.3
2018-09-15T10:28:05.271Z,39.6
2018-09-15T10:30:05.176Z,39.4
2018-09-15T10:32:05.905Z,39.2
2018-09-15T10:34:05.890Z,39.3
2018-09-15T10:36:05.597Z,39.4
2018-09-15T10:38:05.305Z,39.1
2018-09-15T10:40:05.005Z,39.4
2018-09-15T10:42:05.945Z,39.6
2018-09-15T10:44:05.684Z,39.3
2018-09-15T10:46:05.358Z,39.2
2018-09-15T10:48:05.063Z,39.1
2018-09-15T10:50:05.772Z,38.9
2018-09-15T10:52:15.706Z,38.5
2018-09-15T10:54:05.592Z,38.4
2018-09-15T10:56:05.285Z,38.7
2018-09-15T10:58:06.010Z,38.8
2018-09-15T11:00:07.995Z,38.6
2018-09-15T11:02:05.667Z,38.6
2018-09-15T11:04:07.958Z,38.4
2018-09-15T11:06:05.730Z,38.4
2018-09-15T11:08:05.507Z,38.4
2018-09-15T11:10:13.300Z,38.5
2018-09-15T11:12:05.208Z,38.3
2018-09-15T11:14:05.929Z,38.4
2018-09-15T11:16:05.572Z,38.1
2018-09-15T11:18:05.589Z,38.1
2018-09-15T11:20:08.106Z,37.9
2018-09-15T11:22:05.810Z,37.9
2018-09-15T11:24:05.506Z,37.8
2018-09-15T11:26:05.455Z,37.8
2018-09-15T11:28:05.209Z,37.6
2018-09-15T11:30:05.399Z,37.5
2018-09-15T11:32:07.643Z,37.4
2018-09-15T11:34:05.679Z,37.3
2018-09-15T11:36:05.613Z,37.2
2018-09-15T11:38:05.353Z,37.1
2018-09-15T11:40:07.704Z,37.3
2018-09-15T11:42:08.169Z,36.8
2018-09-15T11:44:05.882Z,37.1
2018-09-15T11:46:08.155Z,36.9
2018-09-15T11:48:08.579Z,36.8
2018-09-15T11:50:07.995Z,36.8
2018-09-15T11:52:08.647Z,36.9
2018-09-15T11:54:05.371Z,36.6
2018-09-15T11:56:05.135Z,36.8
2018-09-15T11:58:05.864Z,36.7
2018-09-15T12:00:05.961Z,36.7
2018-09-15T12:02:05.942Z,36.6
2018-09-15T12:04:05.321Z,36.3
2018-09-15T12:06:07.015Z,36.2
2018-09-15T12:08:05.800Z,36
2018-09-15T12:10:07.827Z,36.1
2018-09-15T12:12:05.196Z,36.1
2018-09-15T12:14:07.131Z,36.1
2018-09-15T12:16:05.987Z,36.1
2018-09-15T12:18:05.436Z,35.9
2018-09-15T12:20:08.274Z,35.9
2018-09-15T12:22:04.990Z,35.9
2018-09-15T12:24:05.754Z,35.8
2018-09-15T12:26:05.453Z,35.6
2018-09-15T12:28:05.646Z,35.6
2018-09-15T12:30:05.497Z,35.4
2018-09-15T12:32:05.170Z,35.3
2018-09-15T12:34:05.923Z,35.3
2018-09-15T12:36:08.127Z,35.5
2018-09-15T12:38:07.542Z,35.3
2018-09-15T12:40:05.276Z,35.3
2018-09-15T12:42:06.046Z,35.3
2018-09-15T12:44:10.863Z,35.2
2018-09-15T12:46:05.542Z,35.1
2018-09-15T12:48:07.760Z,35.1
2018-09-15T12:50:05.169Z,35.1
2018-09-15T12:52:07.967Z,35.3
2018-09-15T12:54:07.750Z,35.3
2018-09-15T12:56:08.012Z,35.5
2018-09-15T12:58:06.060Z,35.4
2018-09-15T13:00:05.783Z,35.5
2018-09-15T13:02:08.000Z,35.4
2018-09-15T13:04:05.742Z,35.4
2018-09-15T13:06:05.426Z,35.3
2018-09-15T13:08:07.705Z,35.3
2018-09-15T13:10:08.475Z,35.3
2018-09-15T13:12:05.404Z,35.3
2018-09-15T13:14:05.259Z,35.3
2018-09-15T13:16:05.930Z,35.3
2018-09-15T13:20:14.829Z,35.3
2018-09-15T13:20:14.986Z,35.3
2018-09-15T13:22:08.344Z,35.2
2018-09-15T13:24:05.865Z,35.2
2018-09-15T13:26:06.911Z,35.2
2018-09-15T13:28:06.232Z,35.3
2018-09-15T13:30:06.712Z,35.2
2018-09-15T13:32:07.633Z,35.3
2018-09-15T13:34:05.486Z,35.3
2018-09-15T13:36:05.972Z,35.1
2018-09-15T13:38:05.623Z,35.1
2018-09-15T13:40:05.639Z,34.9
2018-09-15T13:42:05.493Z,34.8
2018-09-15T13:44:05.361Z,34.9
2018-09-15T13:46:07.918Z,35.1
2018-09-15T13:48:06.137Z,34.9
2018-09-15T13:50:05.895Z,35.1
2018-09-15T13:52:08.902Z,35.1
2018-09-15T13:54:13.230Z,35.2
2018-09-15T13:56:05.907Z,35.2
2018-09-15T13:58:08.787Z,35
2018-09-15T14:00:08.053Z,35
2018-09-15T14:04:10.489Z,35.1
2018-09-15T14:06:05.399Z,35
2018-09-15T14:08:05.084Z,35.2
2018-09-15T14:10:08.276Z,35.2
2018-09-15T14:12:13.572Z,35.3
2018-09-15T14:14:07.790Z,35.3
2018-09-15T14:16:05.498Z,35.2
2018-09-15T14:18:05.416Z,35.5
2018-09-15T14:20:05.378Z,35
2018-09-15T14:22:05.470Z,35
2018-09-15T14:24:05.532Z,35
2018-09-15T14:26:12.922Z,35.2
2018-09-15T14:28:05.590Z,35.1
2018-09-15T14:30:05.333Z,35.3
2018-09-15T14:32:07.594Z,35.3
2018-09-15T14:34:05.424Z,35.3
2018-09-15T14:36:05.181Z,35.3
2018-09-15T14:38:08.599Z,35.3
2018-09-15T14:40:05.419Z,35.3
2018-09-15T14:42:05.616Z,35.5
2018-09-15T14:44:05.340Z,35.3
2018-09-15T14:46:05.142Z,35.3
2018-09-15T14:48:06.027Z,35.5
2018-09-15T14:50:13.928Z,35.4
2018-09-15T14:52:05.782Z,35.4
2018-09-15T14:54:08.021Z,35.6
2018-09-15T14:56:05.993Z,35.6
2018-09-15T14:58:13.356Z,35.5
2018-09-15T15:00:06.563Z,35.7
2018-09-15T15:02:05.784Z,35.5
2018-09-15T15:04:06.059Z,35.6
2018-09-15T15:06:05.466Z,35.6
2018-09-15T15:08:08.682Z,35.4
2018-09-15T15:10:05.825Z,35.4
2018-09-15T15:12:10.652Z,35.5
2018-09-15T15:14:05.338Z,35.5
2018-09-15T15:16:10.594Z,35.6
2018-09-15T15:18:05.563Z,35.6
2018-09-15T15:20:07.829Z,35.6
2018-09-15T15:22:05.117Z,35.4
2018-09-15T15:24:05.857Z,35.7
2018-09-15T15:26:05.646Z,35.5
2018-09-15T15:28:06.077Z,35.7
2018-09-15T15:30:11.969Z,35.7
2018-09-15T15:32:05.874Z,35.7
2018-09-15T15:34:05.909Z,35.9
2018-09-15T15:36:05.958Z,35.8
2018-09-15T15:38:05.708Z,35.9
2018-09-15T15:40:05.368Z,35.8
2018-09-15T15:42:05.195Z,36
2018-09-15T15:44:06.017Z,35.9
2018-09-15T15:46:05.882Z,35.9
2018-09-15T15:48:05.715Z,36
2018-09-15T15:50:11.524Z,35.8
2018-09-15T15:52:07.791Z,35.9
2018-09-15T15:54:08.333Z,36
2018-09-15T15:56:05.048Z,36
2018-09-15T15:58:05.779Z,36.1
2018-09-15T16:00:05.483Z,36
2018-09-15T16:02:05.221Z,36
2018-09-15T16:04:10.948Z,36
2018-09-15T16:06:08.419Z,36
2018-09-15T16:08:05.198Z,36
2018-09-15T16:10:06.879Z,36.2
2018-09-15T16:12:08.286Z,36
2018-09-15T16:14:06.096Z,36.2
2018-09-15T16:16:07.525Z,36.2
2018-09-15T16:18:05.444Z,36.2
2018-09-15T16:20:05.173Z,36.2
2018-09-15T16:22:05.105Z,36.3
2018-09-15T16:24:05.873Z,36.2
2018-09-15T16:26:07.605Z,36.3
2018-09-15T16:28:05.800Z,36.3
2018-09-15T16:30:05.525Z,36.3
2018-09-15T16:32:05.209Z,36.3
2018-09-15T16:34:05.884Z,36.4
2018-09-15T16:36:05.709Z,36.3
2018-09-15T16:38:05.405Z,36.4
2018-09-15T16:40:07.652Z,36.5
2018-09-15T16:42:08.109Z,36.3
2018-09-15T16:44:08.407Z,36.3
2018-09-15T16:46:05.104Z,36.5
2018-09-15T16:48:05.880Z,36.6
2018-09-15T16:50:05.826Z,36.4
2018-09-15T16:52:08.164Z,36.5
2018-09-15T16:54:05.954Z,36.6
2018-09-15T16:56:05.700Z,36.6
2018-09-15T16:58:05.633Z,36.6
2018-09-15T17:00:10.385Z,36.5
2018-09-15T17:02:05.271Z,36.6
2018-09-15T17:04:07.980Z,36.8
2018-09-15T17:06:05.862Z,36.6
2018-09-15T17:08:05.634Z,36.6
2018-09-15T17:10:05.846Z,36.6
2018-09-15T17:12:06.015Z,36.6
2018-09-15T17:14:05.162Z,36.7
2018-09-15T17:16:05.123Z,36.7
2018-09-15T17:18:05.213Z,36.7
2018-09-15T17:20:05.853Z,36.8
2018-09-15T17:22:05.545Z,36.7
2018-09-15T17:24:07.784Z,36.7
2018-09-15T17:26:05.777Z,36.7
2018-09-15T17:28:05.563Z,36.6
2018-09-15T17:30:05.713Z,36.6
2018-09-15T17:32:10.508Z,36.7
2018-09-15T17:34:07.030Z,36.6
2018-09-15T17:36:05.757Z,36.6
2018-09-15T17:38:06.773Z,36.6
2018-09-15T17:40:05.497Z,36.8
2018-09-15T17:42:08.444Z,36.7
2018-09-15T17:44:05.136Z,36.7
2018-09-15T17:46:08.387Z,36.5
2018-09-15T17:48:05.384Z,36.5
2018-09-15T17:50:05.748Z,36.6
2018-09-15T17:52:05.438Z,36.8
2018-09-15T17:54:05.712Z,36.7
2018-09-15T17:56:05.502Z,36.9
2018-09-15T17:58:05.443Z,36.8
2018-09-15T18:00:05.449Z,36.8
2018-09-15T18:02:07.904Z,36.8
2018-09-15T18:04:05.760Z,36.8
2018-09-15T18:06:05.805Z,36.9
2018-09-15T18:08:05.498Z,36.8
2018-09-15T18:10:05.402Z,36.8
2018-09-15T18:12:05.128Z,36.8
2018-09-15T18:14:05.068Z,36.8
2018-09-15T18:16:12.950Z,36.8
2018-09-15T18:18:07.589Z,36.8
2018-09-15T18:20:05.277Z,36.8
2018-09-15T18:22:12.668Z,36.9
2018-09-15T18:24:05.909Z,36.9
2018-09-15T18:26:05.630Z,36.8
2018-09-15T18:28:05.566Z,36.9
2018-09-15T18:30:05.403Z,36.9
2018-09-15T18:32:05.648Z,36.9
2018-09-15T18:34:05.554Z,36.9
2018-09-15T18:36:07.061Z,36.9
2018-09-15T18:38:06.129Z,36.9
2018-09-15T18:40:06.105Z,37
2018-09-15T18:42:05.917Z,36.9
2018-09-15T18:44:08.647Z,36.9
2018-09-15T18:46:05.360Z,36.9
2018-09-15T18:48:07.599Z,36.9
2018-09-15T18:50:05.405Z,36.9
2018-09-15T18:52:05.636Z,36.9
2018-09-15T18:54:05.635Z,37
2018-09-15T18:56:05.542Z,36.9
2018-09-15T18:58:05.548Z,36.9
2018-09-15T19:00:05.452Z,37
2018-09-15T19:02:05.150Z,36.9
2018-09-15T19:04:08.406Z,37
2018-09-15T19:06:05.342Z,37
2018-09-15T19:08:05.794Z,37
2018-09-15T19:10:05.579Z,37.2
2018-09-15T19:12:05.300Z,37.2
2018-09-15T19:14:05.764Z,36.9
2018-09-15T19:16:05.721Z,37
2018-09-15T19:18:05.835Z,37
2018-09-15T19:20:06.546Z,37
2018-09-15T19:22:09.019Z,37
2018-09-15T19:24:05.718Z,37
2018-09-15T19:26:10.677Z,37.1
2018-09-15T19:28:05.638Z,37.1
2018-09-15T19:30:05.911Z,37.1
2018-09-15T19:32:08.196Z,37.1
2018-09-15T19:34:08.458Z,36.9
2018-09-15T19:36:05.215Z,36.9
2018-09-15T19:38:05.894Z,37.2
2018-09-15T19:40:07.795Z,37.1
2018-09-15T19:42:15.570Z,37.3
2018-09-15T19:44:05.290Z,37.3
2018-09-15T19:46:06.007Z,37.3
2018-09-15T19:48:15.847Z,37.6
2018-09-15T19:50:05.499Z,37.4
2018-09-15T19:52:05.313Z,37.4
2018-09-15T19:54:10.664Z,37.6
2018-09-15T19:56:08.201Z,37.5
2018-09-15T19:58:08.688Z,37.5
2018-09-15T20:00:05.459Z,37.5
2018-09-15T20:02:05.222Z,37.6
2018-09-15T20:04:05.465Z,37.8
2018-09-15T20:06:11.380Z,37.6
2018-09-15T20:08:05.625Z,37.6
2018-09-15T20:10:08.001Z,37.6
2018-09-15T20:12:05.440Z,37.6
2018-09-15T20:14:07.635Z,37.9
2018-09-15T20:16:10.464Z,38
2018-09-15T20:18:05.408Z,38
2018-09-15T20:20:08.061Z,37.9
2018-09-15T20:22:05.759Z,37.9
2018-09-15T20:24:10.751Z,38
2018-09-15T20:26:08.282Z,38.1
2018-09-15T20:28:11.056Z,38.2
2018-09-15T20:30:05.760Z,38.1
2018-09-15T20:32:05.709Z,38
2018-09-15T20:34:05.626Z,38
2018-09-15T20:36:05.885Z,38.3
2018-09-15T20:38:05.527Z,38.2
2018-09-15T20:40:05.255Z,38
2018-09-15T20:42:05.017Z,38
2018-09-15T20:44:05.256Z,38
2018-09-15T20:46:05.354Z,38.2
2018-09-15T20:48:05.064Z,38.3
2018-09-15T20:50:06.202Z,38.3
2018-09-15T20:52:06.985Z,38.4
2018-09-15T20:54:05.468Z,38.6
2018-09-15T20:56:05.395Z,38.5
2018-09-15T20:58:06.359Z,38.5
2018-09-15T21:00:05.239Z,38.4
2018-09-15T21:02:11.235Z,38.4
2018-09-15T21:04:05.891Z,38.4
2018-09-15T21:06:05.098Z,38.3
2018-09-15T21:08:05.302Z,38.2
2018-09-15T21:10:05.543Z,38.2
2018-09-15T21:12:05.242Z,38.2
2018-09-15T21:14:05.952Z,38.1
2018-09-15T21:16:05.789Z,38.3
2018-09-15T21:18:08.258Z,38
2018-09-15T21:20:11.213Z,38.3
2018-09-15T21:22:05.926Z,38.3
2018-09-15T21:24:08.181Z,38.2
2018-09-15T21:26:07.131Z,38.2
2018-09-15T21:28:05.075Z,38.2
2018-09-15T21:30:05.781Z,38.3
2018-09-15T21:32:11.552Z,38.3
2018-09-15T21:34:05.658Z,38.3
2018-09-15T21:36:05.349Z,38.3
2018-09-15T21:38:05.573Z,38.2
2018-09-15T21:40:05.558Z,38.2
2018-09-15T21:42:05.560Z,38.2
2018-09-15T21:44:10.971Z,38.2
2018-09-15T21:46:05.818Z,38.2
2018-09-15T21:48:05.745Z,38.1
2018-09-15T21:50:05.470Z,38.1
2018-09-15T21:52:05.210Z,38.4
2018-09-15T21:54:06.174Z,38.4
2018-09-15T21:56:10.905Z,38.2
2018-09-15T21:58:13.167Z,38.1
2018-09-15T22:00:05.979Z,38.1
2018-09-15T22:02:08.203Z,38.1
2018-09-15T22:04:06.151Z,38.1
2018-09-15T22:06:06.146Z,38.4
2018-09-15T22:08:05.952Z,38.3
2018-09-15T22:10:05.673Z,38.3
2018-09-15T22:12:05.930Z,38.2
2018-09-15T22:14:05.935Z,38.4
2018-09-15T22:16:08.188Z,38.4
2018-09-15T22:18:05.240Z,38.2
2018-09-15T22:20:05.120Z,38.2
2018-09-15T22:22:05.099Z,38.2
2018-09-15T22:24:05.444Z,38.2
2018-09-15T22:26:05.127Z,38.1
2018-09-15T22:28:05.059Z,38.3
2018-09-15T22:30:06.184Z,37.5
2018-09-15T22:32:10.975Z,38.1
2018-09-15T22:34:05.868Z,38.1
2018-09-15T22:36:05.817Z,38.1
2018-09-15T22:38:05.522Z,38.1
2018-09-15T22:40:11.835Z,38.1
2018-09-15T22:42:05.183Z,38.1
2018-09-15T22:44:08.667Z,38.1
2018-09-15T22:46:05.376Z,38.1
2018-09-15T22:48:07.821Z,38.1
2018-09-15T22:50:05.502Z,38.1
2018-09-15T22:52:05.405Z,38.1
2018-09-15T22:54:11.108Z,38.1
2018-09-15T22:56:05.400Z,38.1
2018-09-15T22:58:05.545Z,38.1
2018-09-15T23:00:05.300Z,38.2
2018-09-15T23:02:05.979Z,38.1
2018-09-15T23:04:05.301Z,38.1
2018-09-15T23:06:08.500Z,38.1
2018-09-15T23:08:15.451Z,38.1
2018-09-15T23:10:05.518Z,38.1
2018-09-15T23:12:05.256Z,37.9
2018-09-15T23:14:05.511Z,38.1
2018-09-15T23:16:05.771Z,38.1
2018-09-15T23:18:05.691Z,38.1
2018-09-15T23:20:06.394Z,37.9
2018-09-15T23:22:05.670Z,37.9
2018-09-15T23:24:07.719Z,38
2018-09-15T23:26:08.382Z,38.2
2018-09-15T23:28:07.637Z,37.9
2018-09-15T23:30:05.412Z,37.9
2018-09-15T23:32:05.093Z,37.9
2018-09-15T23:34:05.796Z,37.9
2018-09-15T23:36:05.505Z,37.9
2018-09-15T23:38:05.172Z,37.9
2018-09-15T23:40:05.395Z,37.9
2018-09-15T23:42:05.653Z,37.9
2018-09-15T23:44:05.745Z,37.9
2018-09-15T23:46:05.609Z,37.9
2018-09-15T23:48:08.878Z,37.9
2018-09-15T23:50:08.352Z,37.9
2018-09-15T23:52:05.328Z,37.9
2018-09-15T23:54:05.034Z,37.9
2018-09-15T23:56:05.916Z,37.9
2018-09-15T23:58:05.611Z,37.9
